createdAt,value
2023-04-22T07:46:41.336Z,6.63
2023-04-22T07:49:08.010Z,5.70
2023-04-22T07:51:34.556Z,5.07
2023-04-22T07:54:01.099Z,5.38
2023-04-22T07:56:27.752Z,5.45
2023-04-22T07:58:54.337Z,4.90
2023-04-22T08:01:20.928Z,5.10
2023-04-22T08:03:47.904Z,4.53
2023-04-22T08:06:14.673Z,4.22
2023-04-22T08:08:41.228Z,4.72
2023-04-22T08:11:08.040Z,4.70
2023-04-22T08:13:34.771Z,4.50
2023-04-22T08:16:04.601Z,5.20
2023-04-22T08:18:31.195Z,4.50
2023-04-22T08:20:57.738Z,4.20
2023-04-22T08:23:25.069Z,4.60
2023-04-22T08:28:18.696Z,3.85
2023-04-22T08:30:45.273Z,4.00
2023-04-22T08:33:12.188Z,3.33
2023-04-22T08:35:38.872Z,4.22
2023-04-22T08:38:05.449Z,4.00
2023-04-22T08:40:32.019Z,3.50
2023-04-22T08:42:58.710Z,3.75
2023-04-22T08:45:25.341Z,3.45
2023-04-22T08:47:53.715Z,4.50
2023-04-22T08:50:22.510Z,4.10
2023-04-22T08:52:49.249Z,4.57
2023-04-22T08:55:15.848Z,4.75
2023-04-22T08:57:43.042Z,4.40
2023-04-22T09:05:06.552Z,4.50
2023-04-22T09:07:33.316Z,3.90
2023-04-22T09:09:59.854Z,3.95
2023-04-22T09:12:26.571Z,3.90
2023-04-22T09:14:54.537Z,3.78
2023-04-22T09:17:35.117Z,4.05
2023-04-22T09:20:04.579Z,4.45
2023-04-22T09:22:45.253Z,4.25
2023-04-22T09:25:21.366Z,3.85
2023-04-22T09:27:52.504Z,4.10
2023-04-22T09:30:33.339Z,2.83
2023-04-22T09:33:04.717Z,3.40
2023-04-22T09:35:36.930Z,3.65
2023-04-22T09:38:10.484Z,3.38
2023-04-22T09:40:38.009Z,3.53
2023-04-22T09:43:06.132Z,3.40
2023-04-22T09:45:37.812Z,3.28
2023-04-22T09:48:11.630Z,2.97
2023-04-22T09:50:40.868Z,3.30
2023-04-22T09:53:09.967Z,3.30
2023-04-22T09:55:48.456Z,3.15
2023-04-22T09:58:20.179Z,2.80
2023-04-22T10:00:52.109Z,2.88
2023-04-22T10:03:19.443Z,2.85
2023-04-22T10:05:46.374Z,3.00
2023-04-22T10:08:15.376Z,4.10
2023-04-22T10:10:42.784Z,2.60
2023-04-22T10:15:42.555Z,1.98
2023-04-22T10:18:12.841Z,2.60
2023-04-22T10:20:42.403Z,2.58
2023-04-22T10:23:18.962Z,2.20
2023-04-22T10:25:51.477Z,2.38
2023-04-22T10:28:20.571Z,2.65
2023-04-22T10:30:47.304Z,2.70
2023-04-22T10:33:29.060Z,2.22
2023-04-22T10:36:15.855Z,2.55
2023-04-22T10:38:54.215Z,2.42
2023-04-22T10:41:35.097Z,3.30
2023-04-22T10:44:07.054Z,2.63
2023-04-22T10:46:40.351Z,2.45
2023-04-22T10:49:07.861Z,2.80
2023-04-22T10:51:41.226Z,2.67
2023-04-22T10:54:31.425Z,2.80
2023-04-22T10:57:03.667Z,2.72
2023-04-22T10:59:31.916Z,3.22
2023-04-22T11:02:02.597Z,2.72
2023-04-22T11:04:29.399Z,3.00
2023-04-22T11:07:16.246Z,3.25
2023-04-22T11:12:35.831Z,3.17
2023-04-22T11:15:23.039Z,3.13
2023-04-22T11:17:54.315Z,3.05
2023-04-22T11:20:21.285Z,2.90
2023-04-22T11:22:50.907Z,3.00
2023-04-22T11:25:17.929Z,3.17
2023-04-22T11:27:44.647Z,3.30
2023-04-22T11:30:21.966Z,4.85
2023-04-22T11:32:53.615Z,3.20
2023-04-22T11:35:29.693Z,4.13
2023-04-22T11:37:58.950Z,6.47
2023-04-22T11:40:38.830Z,3.53
2023-04-22T11:43:08.613Z,7.68
2023-04-22T11:45:37.218Z,8.18
2023-04-22T11:48:07.230Z,4.35
2023-04-22T11:50:55.118Z,3.50
2023-04-22T11:53:24.187Z,3.30
2023-04-22T11:55:52.010Z,3.30
2023-04-22T11:58:28.881Z,3.20
2023-04-22T12:00:57.742Z,3.20
2023-04-22T12:03:31.547Z,3.10
2023-04-22T12:05:59.596Z,3.55
2023-04-22T12:08:49.457Z,3.83
2023-04-22T12:11:16.007Z,3.30
2023-04-22T12:13:45.632Z,3.37
2023-04-22T12:16:14.200Z,3.60
2023-04-22T12:18:52.078Z,3.20
2023-04-22T12:21:24.798Z,3.33
2023-04-22T12:23:59.794Z,3.28
2023-04-22T12:26:27.945Z,3.10
2023-04-22T12:28:56.725Z,3.58
2023-04-22T12:31:23.874Z,3.05
2023-04-22T12:33:50.805Z,3.30
2023-04-22T12:36:20.829Z,3.10
2023-04-22T12:38:47.881Z,3.28
2023-04-22T12:41:15.851Z,3.15
2023-04-22T12:43:42.462Z,2.97
2023-04-22T12:46:09.578Z,2.90
2023-04-22T12:48:39.505Z,2.60
2023-04-22T12:51:06.943Z,2.80
2023-04-22T12:53:34.067Z,2.70
2023-04-22T12:56:00.870Z,3.60
2023-04-22T12:58:27.677Z,3.50
2023-04-22T13:00:54.357Z,3.60
2023-04-22T13:03:21.039Z,2.80
2023-04-22T13:05:47.874Z,3.45
2023-04-22T13:08:14.745Z,4.00
2023-04-22T13:10:41.314Z,4.43
2023-04-22T13:15:38.973Z,3.10
2023-04-22T13:18:06.182Z,3.10
2023-04-22T13:20:32.953Z,3.40
2023-04-22T13:22:59.473Z,3.03
2023-04-22T13:25:26.058Z,3.87
2023-04-22T13:27:52.659Z,3.50
2023-04-22T13:30:20.092Z,3.20
2023-04-22T13:32:46.775Z,3.30
2023-04-22T13:35:13.460Z,3.38
2023-04-22T13:37:40.048Z,3.15
2023-04-22T13:40:08.356Z,3.70
2023-04-22T13:42:35.039Z,3.42
2023-04-22T13:45:01.595Z,4.55
2023-04-22T13:47:28.219Z,3.40
2023-04-22T13:49:54.745Z,3.88
2023-04-22T13:52:21.844Z,4.13
2023-04-22T13:54:48.414Z,3.67
2023-04-22T13:57:15.090Z,3.80
2023-04-22T13:59:42.264Z,3.47
2023-04-22T14:02:09.426Z,5.20
2023-04-22T14:04:36.238Z,6.82
2023-04-22T14:07:04.090Z,4.65
2023-04-22T14:09:31.136Z,3.50
2023-04-22T14:11:58.463Z,3.78
2023-04-22T14:16:51.994Z,4.70
2023-04-22T14:19:18.749Z,3.67
2023-04-22T14:21:45.721Z,3.40
2023-04-22T14:24:12.307Z,3.60
2023-04-22T14:26:38.902Z,3.10
2023-04-22T14:29:05.607Z,3.50
2023-04-22T14:31:32.349Z,3.72
2023-04-22T14:33:58.952Z,3.72
2023-04-22T14:36:25.771Z,9.95
2023-04-22T14:38:52.357Z,3.28
2023-04-22T14:41:19.018Z,4.35
2023-04-22T14:43:46.954Z,3.42
2023-04-22T14:46:13.515Z,3.17
2023-04-22T14:48:40.266Z,3.78
2023-04-22T14:51:06.954Z,3.35
2023-04-22T14:53:34.153Z,3.30
2023-04-22T14:56:01.181Z,3.67
2023-04-22T14:58:31.300Z,3.83
2023-04-22T15:00:59.968Z,3.45
2023-04-22T15:03:26.854Z,3.80
2023-04-22T15:05:54.557Z,3.63
2023-04-22T15:08:21.640Z,3.00
2023-04-22T15:10:48.242Z,2.92
2023-04-22T15:13:15.143Z,3.10
2023-04-22T15:15:41.843Z,2.75
2023-04-22T15:18:09.044Z,3.72
2023-04-22T15:20:35.907Z,3.25
2023-04-22T15:23:03.011Z,3.30
2023-04-22T15:25:29.755Z,2.97
2023-04-22T15:27:57.056Z,2.67
2023-04-22T15:32:50.906Z,2.95
2023-04-22T15:35:17.927Z,2.97
2023-04-22T15:37:45.780Z,3.10
2023-04-22T15:40:12.411Z,2.70
2023-04-22T15:42:39.040Z,2.63
2023-04-22T15:45:06.625Z,2.90
2023-04-22T15:47:33.965Z,2.85
2023-04-22T15:52:33.738Z,2.80
2023-04-22T15:55:01.877Z,3.10
2023-04-22T15:57:28.745Z,3.17
2023-04-22T16:00:06.671Z,2.78
2023-04-22T16:02:36.903Z,2.80
2023-04-22T16:05:04.214Z,3.00
2023-04-22T16:07:31.846Z,2.60
2023-04-22T16:09:58.467Z,2.95
2023-04-22T16:12:24.967Z,2.88
2023-04-22T16:14:51.517Z,2.87
2023-04-22T16:17:18.268Z,3.00
2023-04-22T16:19:44.945Z,3.15
2023-04-22T16:22:11.878Z,2.90
2023-04-22T16:24:38.418Z,2.60
2023-04-22T16:27:05.022Z,2.88
2023-04-22T16:29:31.565Z,2.88
2023-04-22T16:31:58.172Z,2.63
2023-04-22T16:34:24.695Z,2.92
2023-04-22T16:36:51.353Z,2.50
2023-04-22T16:39:19.134Z,2.97
2023-04-22T16:41:45.972Z,2.75
2023-04-22T16:44:12.627Z,2.70
2023-04-22T16:46:39.307Z,2.80
2023-04-22T16:49:08.441Z,3.03
2023-04-22T16:51:36.982Z,2.90
2023-04-22T16:54:04.026Z,3.20
2023-04-22T16:56:30.724Z,8.88
2023-04-22T16:58:57.359Z,9.52
2023-04-22T17:01:24.186Z,6.20
2023-04-22T17:03:51.044Z,9.63
2023-04-22T17:06:18.027Z,11.40
2023-04-22T17:08:44.563Z,9.38
2023-04-22T17:11:12.008Z,5.90
2023-04-22T17:13:38.617Z,4.70
2023-04-22T17:16:05.678Z,7.97
2023-04-22T17:18:32.370Z,4.65
2023-04-22T17:20:58.933Z,5.93
2023-04-22T17:23:26.992Z,5.82
2023-04-22T17:25:53.600Z,4.70
2023-04-22T17:28:20.246Z,4.07
2023-04-22T17:30:46.798Z,3.75
2023-04-22T17:33:13.401Z,4.00
2023-04-22T17:35:40.298Z,4.30
2023-04-22T17:38:07.153Z,4.15
2023-04-22T17:40:33.762Z,3.83
2023-04-22T17:43:00.384Z,3.90
2023-04-22T17:45:27.062Z,3.90
2023-04-22T17:47:53.661Z,3.50
2023-04-22T17:50:20.909Z,4.22
2023-04-22T17:52:47.500Z,5.72
2023-04-22T17:55:14.072Z,4.10
2023-04-22T17:57:41.020Z,4.30
2023-04-22T18:00:08.439Z,10.85
2023-04-22T18:05:02.062Z,6.45
2023-04-22T18:07:28.616Z,6.43
2023-04-22T18:09:55.332Z,5.40
2023-04-22T18:12:24.224Z,7.93
2023-04-22T18:14:50.805Z,10.20
2023-04-22T18:17:20.163Z,9.07
2023-04-22T18:19:50.897Z,5.10
2023-04-22T18:22:18.669Z,6.60
2023-04-22T18:24:45.542Z,5.57
2023-04-22T18:27:12.155Z,7.38
2023-04-22T18:29:39.103Z,6.93
2023-04-22T18:32:06.081Z,9.00
2023-04-22T18:34:32.745Z,8.73
2023-04-22T18:36:59.315Z,7.47
2023-04-22T18:39:25.974Z,13.37
2023-04-22T18:41:52.639Z,12.13
2023-04-22T18:44:19.583Z,7.43
2023-04-22T18:46:46.437Z,9.65
2023-04-22T18:49:13.005Z,6.25
2023-04-22T18:51:42.071Z,6.07
2023-04-22T18:54:08.991Z,6.10
2023-04-22T18:56:35.662Z,7.43
2023-04-22T18:59:02.301Z,7.55
2023-04-22T19:01:28.974Z,7.50
2023-04-22T19:03:56.041Z,8.60
2023-04-22T19:06:22.674Z,36.40
2023-04-22T19:08:51.830Z,11.77
2023-04-22T19:11:18.717Z,8.57
2023-04-22T19:13:46.354Z,8.55
2023-04-22T19:16:12.962Z,8.20
2023-04-22T19:18:40.096Z,8.57
2023-04-22T19:21:07.145Z,8.23
2023-04-22T19:23:34.457Z,10.60
2023-04-22T19:28:28.982Z,10.15
2023-04-22T19:30:55.607Z,15.27
2023-04-22T19:33:22.280Z,15.05
2023-04-22T19:35:48.971Z,12.15
2023-04-22T19:38:19.069Z,10.10
2023-04-22T19:40:45.802Z,10.10
2023-04-22T19:43:12.380Z,9.07
2023-04-22T19:45:38.928Z,11.70
2023-04-22T19:48:06.150Z,12.93
2023-04-22T19:50:34.460Z,12.85
2023-04-22T19:53:05.377Z,10.63
2023-04-22T19:55:36.773Z,10.73
2023-04-22T19:58:03.820Z,8.88
2023-04-22T20:00:34.936Z,8.70
2023-04-22T20:03:02.249Z,8.85
2023-04-22T20:08:00.210Z,8.23
2023-04-22T20:10:27.883Z,7.97
2023-04-22T20:12:54.726Z,9.63
2023-04-22T20:15:21.635Z,11.45
2023-04-22T20:17:48.818Z,11.82
2023-04-22T20:20:17.548Z,12.07
2023-04-22T20:22:46.845Z,11.48
2023-04-22T20:25:15.728Z,10.05
2023-04-22T20:27:42.936Z,10.15
2023-04-22T20:30:10.951Z,10.93
2023-04-22T20:32:38.400Z,9.68
2023-04-22T20:35:06.766Z,9.73
2023-04-22T20:37:36.095Z,9.45
2023-04-22T20:40:05.495Z,10.20
2023-04-22T20:42:33.016Z,9.40
2023-04-22T20:44:59.629Z,8.23
2023-04-22T20:47:26.204Z,8.37
2023-04-22T20:49:52.801Z,8.87
2023-04-22T20:52:19.366Z,8.27
2023-04-22T20:54:46.116Z,8.03
2023-04-22T20:57:13.239Z,7.90
2023-04-22T20:59:39.779Z,8.30
2023-04-22T21:02:07.827Z,7.80
2023-04-22T21:04:34.774Z,7.75
2023-04-22T21:07:06.863Z,8.05
2023-04-22T21:09:33.734Z,7.63
2023-04-22T21:12:01.019Z,8.23
2023-04-22T21:14:27.891Z,8.27
2023-04-22T21:17:04.253Z,8.50
2023-04-22T21:19:34.490Z,8.20
2023-04-22T21:22:05.839Z,8.13
2023-04-22T21:24:34.849Z,8.82
2023-04-22T21:27:01.949Z,9.13
2023-04-22T21:29:29.042Z,8.93
2023-04-22T21:32:07.975Z,8.52
2023-04-22T21:34:35.652Z,9.13
2023-04-22T21:37:02.519Z,9.57
2023-04-22T21:39:29.940Z,8.43
2023-04-22T21:44:23.032Z,9.15
2023-04-22T21:46:49.612Z,8.88
2023-04-22T21:49:16.345Z,9.83
2023-04-22T21:51:43.120Z,9.40
2023-04-22T21:54:09.733Z,8.93
2023-04-22T21:56:36.443Z,8.90
2023-04-22T21:59:02.958Z,9.13
2023-04-22T22:01:29.632Z,9.13
2023-04-22T22:03:56.422Z,9.10
2023-04-22T22:06:23.153Z,8.93
2023-04-22T22:08:50.412Z,8.60
2023-04-22T22:11:27.472Z,8.98
2023-04-22T22:13:56.799Z,8.73
2023-04-22T22:16:23.416Z,8.75
2023-04-22T22:18:50.642Z,8.77
2023-04-22T22:21:17.877Z,8.68
2023-04-22T22:23:44.401Z,9.20
2023-04-22T22:26:11.289Z,9.03
2023-04-22T22:28:38.343Z,9.40
2023-04-22T22:31:05.057Z,9.90
2023-04-22T22:33:31.642Z,8.88
2023-04-22T22:35:58.300Z,10.03
2023-04-22T22:38:24.832Z,9.77
2023-04-22T22:40:51.462Z,10.00
2023-04-22T22:43:18.109Z,10.00
2023-04-22T22:45:45.623Z,9.73
2023-04-22T22:48:12.367Z,9.80
2023-04-22T22:50:39.898Z,9.43
2023-04-22T22:53:06.499Z,9.60
2023-04-22T22:55:34.168Z,9.82
2023-04-22T22:58:00.963Z,9.32
2023-04-22T23:00:27.739Z,10.15
2023-04-22T23:02:54.779Z,9.95
2023-04-22T23:05:21.919Z,10.48
2023-04-22T23:07:48.489Z,10.13
2023-04-22T23:10:15.771Z,11.93
2023-04-22T23:12:42.504Z,13.25
2023-04-22T23:15:09.793Z,18.10
2023-04-22T23:17:36.946Z,15.93
2023-04-22T23:20:04.476Z,11.55
